Energy Champion — MJUZ7 — position and weather

sailwx.info

Track history (hours):
 
Tides and Currents Weather Stations Pressure Air Temp Water Temp Dewpoint Dewpoint Depression Visibility Wind Speed Wind Dir Waves Ship Positions

Energy Champion

Last reported at 2015-Jul-27 23:33 UTC. Time now 2015-Jul-29 02:39 UTC.
Position N 03°04' E 100°46'.

Length 228 m; draft 8 m.

Type: Tanker. MMSI: 235009420.

Date/timePositionNaut miles runAvg speedWind from/ knotsBaromVisibWave heightAir tempDewpointWater temp
2015-Jul-27 23:33N 03°04' E 100°46'2713.4
2015-Jul-27 21:33N 02°47' E 101°06'2512.7
2015-Jul-27 19:33N 02°35' E 101°29'  
2015-Jul-25 00:33N 02°16' E 101°48'2311.3
2015-Jul-24 22:33N 02°31' E 101°30'2411.9
2015-Jul-24 20:33N 02°43' E 101°10'2411.9
2015-Jul-24 18:33N 02°57' E 100°51'2512.1
2015-Jul-24 16:32N 03°12' E 100°32'4212.5
2015-Jul-24 13:08N 03°39' E 099°58'  
Track history (hours):
 
Tides and Currents Weather Stations Pressure Air Temp Water Temp Dewpoint Dewpoint Depression Visibility Wind Speed Wind Dir Waves Ship Positions

Energy Champion

Last reported at 2015-Jul-27 23:33 UTC. Time now 2015-Jul-29 02:39 UTC.
Position N 03°04' E 100°46'.

Length 228 m; draft 8 m.

Type: Tanker. MMSI: 235009420.

Date/timePositionNaut miles runAvg speedWind from/ knotsBaromVisibWave heightAir tempDewpointWater temp
2015-Jul-27 23:33N 03°04' E 100°46'2713.4
2015-Jul-27 21:33N 02°47' E 101°06'2512.7
2015-Jul-27 19:33N 02°35' E 101°29'  
2015-Jul-25 00:33N 02°16' E 101°48'2311.3
2015-Jul-24 22:33N 02°31' E 101°30'2411.9
2015-Jul-24 20:33N 02°43' E 101°10'2411.9
2015-Jul-24 18:33N 02°57' E 100°51'2512.1
2015-Jul-24 16:32N 03°12' E 100°32'4212.5
2015-Jul-24 13:08N 03°39' E 099°58'  

Dump ship's entire track history